Rodrigo Garcia

Recruteur en chef - Liverpool Montevideo
13 Janv 2028
Jeudi
Processus

Personnalité

Adaptabilité (14) Ambition (16) Controverse (16) Loyauté (19) Pression (11) Professionnalisme (20) Sportivité (16) Tempérament (12)

Profil

Style d'entraînement Démocratique
Diplôme Continental C
Détermination 4
Gestion des joueurs 7
Motivation 10
Discipline 10
Satisfaction professionnelle
100%
Fatigue
0%
Rôle Recruteur en chef
Salaire 65.6K p/s
Contrat 14.03.2030

Performance

Comportement Bon
Efficacité de l'entraînement
43%
Développement des joueurs
45%
Prévention des blessures
55%
Mise en place tactique
50%

Événements récents

A participé à une réunion de recrutement maintenant
A participé à une réunion de recrutement maintenant
A recommandé une cible de transfert maintenant
A recommandé une cible de transfert maintenant
A recommandé une cible de transfert 7j
A recommandé une cible de transfert 7j
A recommandé une cible de transfert 7j
A recommandé une cible de transfert 7j

Suivi en cours

99
Joueur Club Statut Capacité Confiance Observé Dernière observation Dernier vote
Mao Hosoya Everton Négociation 134 / 135 67% 1 01.12.2027 Approuver
Aurélien Scheidler Tondela Négociation 119 / 119 67% 1 01.12.2027 -
Nahuel Soria Oriental Perdu 95 / 97 69% 1 01.12.2027 -
Axel Tape Bayer Leverkusen Actif 125 / 141 40% 1 01.12.2027 -
Esquerdinha Shrewsbury Town Actif 126 / 124 40% 1 01.12.2027 -
Junior Machis Atletico Venezuela Actif 73 / 80 40% 1 01.12.2027 -
Josh Smith Accrington Stanley Actif 83 / 77 40% 3 28.06.2027 -
Franco Pérez Boston River Actif 114 / 95 65% 1 28.06.2027 Approuver
Joseph Nuhu Hasaacas Actif 92 / 92 40% 1 28.06.2027 -
Daniel Costa Sporting CP Actif 103 / 94 40% 1 28.06.2027 -
Christ Inao Oulaï Fiorentina Actif 132 / 151 40% 2 22.06.2027 -
Sascha Britschgi Padova Actif 119 / 124 40% 4 01.06.2027 -
Dion Beljo Standard Liege Négociation 131 / 132 66% 1 01.06.2027 Approuver
Jefry Zapata Danubio Perdu 118 / 118 67% 1 01.06.2027 Approuver
Khama Dolly Utrecht Négociation 123 / 124 67% 1 01.06.2027 -
Bernardo Lima Porto Actif 100 / 103 40% 3 31.05.2027 -
Martim Cunha Porto Actif 106 / 113 40% 2 31.05.2027 -
Riley Owen Trento Actif 108 / 102 40% 3 29.05.2027 -
Joel Ezra Enyimba Actif 95 / 105 40% 1 29.05.2027 -
Zane Albarus Cambridge United Actif 89 / 94 40% 2 26.05.2027 -
Juan Giménez Celta Actif 118 / 123 40% 3 26.05.2027 -
Finn Jeltsch VfB Stuttgart Actif 139 / 135 40% 1 24.05.2027 -
Pietro Reggiori Pro Patria Actif 90 / 99 40% 1 24.05.2027 -
Adam Bakoune Ospitaletto Actif 87 / 98 40% 3 23.05.2027 -
Samuel Lucero Defensa y Justicia Actif 118 / 122 40% 2 23.05.2027 -
Leandro Martins Benfica Actif 91 / 92 40% 2 21.05.2027 -
Fuzy Taylor Medeama Actif 84 / 69 40% 1 18.05.2027 -
Jan Bürger Gillingham Actif 112 / 128 40% 3 17.05.2027 -
Kazunari Kita Real Sociedad Actif 103 / 115 40% 4 14.05.2027 -
Ernie Weaver AFC Wimbledon Actif 105 / 118 40% 2 14.05.2027 -
Tobias Slotsager Casertana Actif 106 / 111 40% 1 13.05.2027 -
Jofre Torrents Ajax Actif 126 / 136 40% 2 11.05.2027 -
Josh King Chelsea Actif 138 / 150 40% 2 11.05.2027 -
Caleb Yirenkyi Coventry City Actif 134 / 144 40% 3 09.05.2027 -
Christos Mouzakitis Hull City Actif 139 / 130 40% 1 09.05.2027 -
Alexandro Maidana Talleres Actif 114 / 130 40% 1 01.05.2027 -
Joel McGregor Swindon Town Actif 90 / 107 40% 4 27.04.2027 -
David Ozoh Derby County Actif 125 / 133 40% 2 26.04.2027 -
Leonardo Mendicino Bari Actif 114 / 112 40% 1 23.04.2027 -
Ronwen Phiri Platinum Stars Actif 83 / 106 40% 1 22.04.2027 -
Percy Jali Free State Stars Actif 111 / 116 40% 1 21.04.2027 -
Macaulley Kuma Heart of Lions Actif 71 / 56 40% 1 11.04.2027 -
Cathal Heffernan Harrogate Town Actif 78 / 81 40% 2 10.04.2027 -
Keagan Tau Ajax Cape Town Actif 97 / 100 40% 2 12.03.2027 -
Davide Bartesaghi AC Milan Actif 124 / 136 40% 2 08.03.2027 -
Mpho Khethang AS Police Actif 75 / 73 40% 1 04.03.2027 -
Esteban Obregón Liverpool Montevideo Négociation 114 / 116 71% 1 14.12.2026 Approuver
Luca Martínez Dupuy Godoy Cruz Actif 128 / 116 40% 2 29.11.2026 -
Tomás O'Connor Gimnasia y Esgrima Actif 122 / 118 40% 3 28.11.2026 -
César Ibáñez Huracán Actif 115 / 134 40% 2 28.11.2026 -
Everton Bala Levski Actif 142 / 123 40% 1 22.11.2026 -
Gonzalo Ríos Independiente Rivadavia Actif 124 / 116 40% 2 20.11.2026 -
Jonás Luna Santa Clara Actif 123 / 133 40% 1 20.11.2026 -
Misael Sosa Godoy Cruz Actif 116 / 105 40% 2 19.11.2026 -
Ammar Ramadan DAC Dunajska Streda Actif 121 / 140 40% 1 18.11.2026 -
Mauro Valiente Estudiantes Actif 122 / 111 40% 1 17.11.2026 -
Gonzalo Flores Almirante Brown Actif 108 / 112 40% 2 13.11.2026 -
Renzo Reynaga Patronato Actif 112 / 106 40% 1 12.11.2026 -
Agustín Módica Gimnasia y Esgrima Actif 115 / 133 40% 1 12.11.2026 -
Juan Rocca Gimnasia y Tiro Actif 111 / 113 40% 1 10.11.2026 -
Agustín Gallo Tristán Suárez Actif 105 / 113 40% 1 10.11.2026 -
Javier Martínez Almirante Brown Actif 114 / 114 40% 2 09.11.2026 -
Juan Cruz Martins Jihlava Actif 103 / 118 40% 1 09.11.2026 -
Tomás González Piast Actif 121 / 118 40% 2 07.11.2026 -
Diego García Malmo FF Actif 131 / 134 40% 1 05.11.2026 -
Santiago Sala Güemes Actif 116 / 100 40% 2 04.11.2026 -
Rodrigo Herrera Newell's Old Boys Actif 121 / 130 40% 1 04.11.2026 -
Juergen Elitím Bohemians 1905 Actif 109 / 123 40% 1 03.11.2026 -
Alexander Díaz Deportivo Riestra Actif 127 / 124 40% 2 02.11.2026 -
Matías Fernández Independiente Rivadavia Actif 122 / 128 40% 1 02.11.2026 -
Lucas Pedraza Defensores Unidos Actif 96 / 97 40% 1 31.10.2026 -
Augusto Berrondo Tristán Suárez Actif 113 / 114 40% 2 30.10.2026 -
Rafael Navarro St. Louis CITY SC Actif 122 / 124 40% 1 30.10.2026 -
Mauro Méndez Tigre Actif 127 / 124 40% 2 29.10.2026 -
Ezequiel Almirón Estudiantes Actif 115 / 110 40% 2 29.10.2026 -
Ramiro Ruiz Rodríguez Atlético Tucumán Actif 119 / 121 40% 4 26.10.2026 -
Santiago Apa All Boys Actif 114 / 103 40% 1 22.10.2026 -
Joaquín Gho Argentinos Juniors Actif 117 / 125 40% 1 22.10.2026 -
Ramiro Hernandes Belgrano Actif 117 / 128 40% 1 22.10.2026 -
Enzo Avaro Odd Actif 111 / 108 40% 2 20.10.2026 -
Sead Hakšabanović Malmo FF Actif 112 / 130 40% 1 20.10.2026 Plus d'infos
Alexis Cuello San Lorenzo Actif 128 / 117 40% 1 18.10.2026 -
Kelvin Yeboah Minnesota United FC Actif 125 / 131 40% 1 15.10.2026 -
Mandla Mahlangu Ajax Cape Town Actif 122 / 121 40% 1 15.10.2026 -
Martín Garay Tigre Actif 118 / 114 40% 1 15.10.2026 -
Juan Mendoza Güemes Actif 96 / 110 40% 1 13.10.2026 -
Tomás Chancalay Minnesota United FC Actif 125 / 123 40% 1 12.10.2026 -
Rodrigo González Mitre Actif 123 / 115 40% 1 11.10.2026 -
Louis Munteanu DC United Actif 120 / 126 40% 1 09.10.2026 -
Maximiliano Rodríguez Huachipato Actif 114 / 126 40% 1 08.10.2026 -
Tadeo Allende Inter Miami CF Actif 123 / 124 40% 1 08.10.2026 -
Yílmar Velásquez Santa Fe Actif 112 / 122 40% 1 12.09.2026 -
Ronaldo Pájaro Deportivo Cali Actif 119 / 110 40% 1 12.09.2026 -
Geindry Cuervo Envigado Actif 104 / 104 40% 1 10.09.2026 -
Fidel Ambríz Monterrey Actif 130 / 130 40% 1 10.09.2026 -
Teun Gijselhart Deportivo La Coruña Actif 98 / 122 40% 1 11.08.2026 -
Ignacio Pérez Universidad Catolica Actif 99 / 104 40% 1 11.08.2026 -
Juan Camilo Loaiza Llaneros Actif 96 / 101 40% 1 03.08.2026 -
Hernán de la Fuente Instituto Actif 117 / 127 40% 1 02.08.2026 -